createdAt,value
2017-10-17T00:02:34.943Z,66.74
2017-10-17T00:17:37.964Z,67.00
2017-10-17T00:32:38.784Z,67.43
2017-10-17T00:47:35.346Z,67.89
2017-10-17T01:02:35.262Z,67.53
2017-10-17T01:17:34.792Z,67.63
2017-10-17T01:32:34.659Z,67.45
2017-10-17T01:47:34.609Z,68.15
2017-10-17T02:02:45.421Z,68.19
2017-10-17T02:17:34.539Z,67.81
2017-10-17T02:32:34.510Z,68.06
2017-10-17T02:47:51.248Z,68.19
2017-10-17T03:02:36.642Z,68.66
2017-10-17T03:17:34.947Z,69.25
2017-10-17T03:32:34.911Z,69.12
2017-10-17T03:47:49.811Z,69.23
2017-10-17T04:02:47.029Z,69.56
2017-10-17T04:17:39.929Z,69.78
2017-10-17T04:32:41.001Z,70.17
2017-10-17T04:47:49.142Z,69.98
2017-10-17T05:02:54.001Z,69.67
2017-10-17T05:17:53.915Z,69.54
2017-10-17T05:32:34.301Z,66.85
2017-10-17T05:47:44.704Z,60.93
2017-10-17T06:02:34.677Z,55.79
2017-10-17T06:17:34.644Z,51.46
2017-10-17T06:32:36.554Z,49.21
2017-10-17T06:47:35.023Z,47.44
2017-10-17T07:02:34.887Z,46.22
2017-10-17T07:17:34.846Z,44.69
2017-10-17T07:32:35.899Z,44.18
2017-10-17T07:47:35.385Z,43.16
2017-10-17T08:02:35.260Z,41.97
2017-10-17T08:17:35.137Z,40.38
2017-10-17T08:32:35.179Z,39.96
2017-10-17T08:47:34.508Z,37.81
2017-10-17T09:02:34.536Z,35.86
2017-10-17T09:17:34.539Z,35.47
2017-10-17T09:32:33.912Z,35.32
2017-10-17T09:47:34.844Z,34.97
2017-10-17T10:02:34.828Z,35.28
2017-10-17T10:17:34.732Z,34.67
2017-10-17T10:32:35.743Z,35.00
2017-10-17T10:47:35.067Z,35.50
2017-10-17T11:02:35.051Z,35.30
2017-10-17T11:17:35.100Z,35.78
2017-10-17T11:32:37.095Z,35.10
2017-10-17T11:47:34.387Z,35.91
2017-10-17T12:02:34.437Z,35.77
2017-10-17T12:17:35.416Z,35.86
2017-10-17T12:32:34.371Z,35.78
2017-10-17T12:47:34.674Z,36.37
2017-10-17T13:02:34.626Z,37.28
2017-10-17T13:17:34.695Z,37.07
2017-10-17T13:32:34.651Z,37.41
2017-10-17T13:47:35.028Z,37.58
2017-10-17T14:02:34.898Z,38.52
2017-10-17T14:17:34.939Z,39.65
2017-10-17T14:32:35.556Z,40.75
2017-10-17T14:47:34.211Z,41.70
2017-10-17T15:02:35.279Z,42.82
2017-10-17T15:17:35.203Z,44.20
2017-10-17T15:32:35.194Z,45.59
2017-10-17T15:47:34.771Z,46.93
2017-10-17T16:02:40.499Z,48.10
2017-10-17T16:17:34.223Z,48.72
2017-10-17T16:47:37.064Z,47.31
2017-10-17T17:02:36.875Z,48.06
2017-10-17T17:17:36.579Z,49.92
2017-10-17T17:47:37.808Z,52.21
2017-10-17T18:02:35.230Z,53.09
2017-10-17T18:17:35.929Z,53.63
2017-10-17T18:32:37.145Z,53.94
2017-10-17T18:47:34.552Z,54.64
2017-10-17T19:02:34.440Z,53.38
2017-10-17T19:17:34.458Z,53.26
2017-10-17T19:32:34.374Z,53.04
2017-10-17T19:47:34.755Z,53.61
2017-10-17T20:02:34.757Z,54.22
2017-10-17T20:17:34.856Z,54.73
2017-10-17T20:32:34.278Z,55.60
2017-10-17T20:47:35.751Z,55.90
2017-10-17T21:02:35.042Z,56.18
2017-10-17T21:17:35.088Z,56.22
2017-10-17T21:32:34.975Z,56.92
2017-10-17T21:47:35.847Z,57.47
2017-10-17T22:02:33.974Z,57.86
2017-10-17T22:17:34.377Z,58.38
2017-10-17T22:32:34.783Z,58.66
2017-10-17T22:47:34.638Z,58.75
2017-10-17T23:02:34.617Z,59.20
2017-10-17T23:17:46.056Z,59.73
2017-10-17T23:32:34.069Z,60.22
2017-10-17T23:47:35.937Z,60.81
